sensor_id;sensor_type;location;lat;lon;timestamp;pressure;altitude;pressure_sealevel;temperature;humidity
78755;BME280;68073;54.176;-4.554;2023-03-03T00:00:20;102696.67;;;7.91;48.74
78755;BME280;68073;54.176;-4.554;2023-03-03T00:02:45;102697.47;;;8.06;48.97
78755;BME280;68073;54.176;-4.554;2023-03-03T00:05:10;102702.24;;;7.91;49.18
78755;BME280;68073;54.176;-4.554;2023-03-03T00:07:35;102703.65;;;8.11;48.77
78755;BME280;68073;54.176;-4.554;2023-03-03T00:10:00;102706.74;;;7.97;49.11
78755;BME280;68073;54.176;-4.554;2023-03-03T00:12:28;102704.91;;;8.01;49.01
78755;BME280;68073;54.176;-4.554;2023-03-03T00:14:51;102708.11;;;7.90;49.13
78755;BME280;68073;54.176;-4.554;2023-03-03T00:17:21;102708.97;;;7.98;48.96
78755;BME280;68073;54.176;-4.554;2023-03-03T00:19:41;102710.03;;;7.81;49.24
78755;BME280;68073;54.176;-4.554;2023-03-03T00:22:13;102710.09;;;7.81;49.34
78755;BME280;68073;54.176;-4.554;2023-03-03T00:24:36;102710.67;;;7.89;49.05
78755;BME280;68073;54.176;-4.554;2023-03-03T00:27:01;102708.99;;;7.83;48.73
78755;BME280;68073;54.176;-4.554;2023-03-03T00:29:29;102714.44;;;7.87;49.08
78755;BME280;68073;54.176;-4.554;2023-03-03T00:31:48;102714.09;;;8.89;53.70
78755;BME280;68073;54.176;-4.554;2023-03-03T00:34:24;102714.89;;;9.02;52.04
78755;BME280;68073;54.176;-4.554;2023-03-03T00:36:38;102718.26;;;8.55;51.75
78755;BME280;68073;54.176;-4.554;2023-03-03T00:39:18;102719.93;;;8.25;53.21
78755;BME280;68073;54.176;-4.554;2023-03-03T00:41:28;102723.92;;;8.07;51.99
78755;BME280;68073;54.176;-4.554;2023-03-03T00:43:53;102721.32;;;7.79;52.05
78755;BME280;68073;54.176;-4.554;2023-03-03T00:46:19;102719.85;;;8.01;50.64
78755;BME280;68073;54.176;-4.554;2023-03-03T00:48:44;102720.19;;;7.73;49.78
78755;BME280;68073;54.176;-4.554;2023-03-03T00:51:19;102719.02;;;8.10;49.89
78755;BME280;68073;54.176;-4.554;2023-03-03T00:53:34;102722.40;;;7.51;50.85
78755;BME280;68073;54.176;-4.554;2023-03-03T00:55:59;102722.43;;;7.60;49.63
78755;BME280;68073;54.176;-4.554;2023-03-03T00:58:24;102725.00;;;7.78;49.78
78755;BME280;68073;54.176;-4.554;2023-03-03T01:00:51;102722.97;;;7.72;50.13
78755;BME280;68073;54.176;-4.554;2023-03-03T01:03:16;102723.84;;;8.10;49.20
78755;BME280;68073;54.176;-4.554;2023-03-03T01:05:39;102724.58;;;8.08;48.80
78755;BME280;68073;54.176;-4.554;2023-03-03T01:08:05;102725.16;;;7.56;49.42
78755;BME280;68073;54.176;-4.554;2023-03-03T01:10:32;102726.02;;;7.59;48.79
78755;BME280;68073;54.176;-4.554;2023-03-03T01:12:54;102728.62;;;7.54;49.07
78755;BME280;68073;54.176;-4.554;2023-03-03T01:15:20;102728.20;;;7.66;48.70
78755;BME280;68073;54.176;-4.554;2023-03-03T01:17:45;102726.69;;;7.86;47.75
78755;BME280;68073;54.176;-4.554;2023-03-03T01:20:13;102725.48;;;7.51;48.03
78755;BME280;68073;54.176;-4.554;2023-03-03T01:22:35;102725.77;;;7.92;47.53
78755;BME280;68073;54.176;-4.554;2023-03-03T01:25:00;102722.61;;;7.93;47.32
78755;BME280;68073;54.176;-4.554;2023-03-03T01:27:25;102720.96;;;8.10;47.00
78755;BME280;68073;54.176;-4.554;2023-03-03T01:29:50;102721.39;;;7.57;47.82
78755;BME280;68073;54.176;-4.554;2023-03-03T01:32:15;102720.19;;;7.38;47.73
78755;BME280;68073;54.176;-4.554;2023-03-03T01:34:40;102720.07;;;7.31;47.58
78755;BME280;68073;54.176;-4.554;2023-03-03T01:37:06;102721.12;;;7.27;47.99
78755;BME280;68073;54.176;-4.554;2023-03-03T01:39:31;102719.70;;;7.18;47.72
78755;BME280;68073;54.176;-4.554;2023-03-03T01:41:56;102720.38;;;7.19;48.39
78755;BME280;68073;54.176;-4.554;2023-03-03T01:44:21;102720.11;;;7.30;47.87
78755;BME280;68073;54.176;-4.554;2023-03-03T01:46:51;102716.86;;;7.40;47.26
78755;BME280;68073;54.176;-4.554;2023-03-03T01:49:14;102718.00;;;7.32;47.71
78755;BME280;68073;54.176;-4.554;2023-03-03T01:51:42;102718.35;;;7.16;47.75
78755;BME280;68073;54.176;-4.554;2023-03-03T01:54:04;102716.80;;;7.21;47.37
78755;BME280;68073;54.176;-4.554;2023-03-03T01:56:27;102716.77;;;7.42;47.14
78755;BME280;68073;54.176;-4.554;2023-03-03T01:58:58;102719.07;;;7.36;47.55
78755;BME280;68073;54.176;-4.554;2023-03-03T02:01:21;102717.49;;;7.38;47.69
78755;BME280;68073;54.176;-4.554;2023-03-03T02:03:48;102716.30;;;7.53;46.86
78755;BME280;68073;54.176;-4.554;2023-03-03T02:06:15;102716.93;;;7.43;47.57
78755;BME280;68073;54.176;-4.554;2023-03-03T02:08:37;102722.84;;;7.46;47.23
78755;BME280;68073;54.176;-4.554;2023-03-03T02:10:58;102723.26;;;7.29;47.48
78755;BME280;68073;54.176;-4.554;2023-03-03T02:13:23;102721.54;;;7.25;47.53
78755;BME280;68073;54.176;-4.554;2023-03-03T02:15:48;102721.63;;;7.32;47.22
78755;BME280;68073;54.176;-4.554;2023-03-03T02:18:16;102719.79;;;7.52;46.72
78755;BME280;68073;54.176;-4.554;2023-03-03T02:20:46;102720.57;;;7.27;47.57
78755;BME280;68073;54.176;-4.554;2023-03-03T02:23:07;102720.38;;;7.13;47.97
78755;BME280;68073;54.176;-4.554;2023-03-03T02:25:32;102719.30;;;6.93;48.22
78755;BME280;68073;54.176;-4.554;2023-03-03T02:27:54;102716.29;;;7.18;47.50
78755;BME280;68073;54.176;-4.554;2023-03-03T02:30:20;102716.32;;;7.35;47.48
78755;BME280;68073;54.176;-4.554;2023-03-03T02:32:44;102716.66;;;7.31;47.41
78755;BME280;68073;54.176;-4.554;2023-03-03T02:37:34;102721.73;;;7.20;47.75
78755;BME280;68073;54.176;-4.554;2023-03-03T02:39:59;102717.40;;;7.29;47.46
78755;BME280;68073;54.176;-4.554;2023-03-03T02:42:26;102718.07;;;7.23;47.60
78755;BME280;68073;54.176;-4.554;2023-03-03T02:44:49;102716.18;;;7.62;47.83
78755;BME280;68073;54.176;-4.554;2023-03-03T02:47:14;102713.80;;;7.33;47.19
78755;BME280;68073;54.176;-4.554;2023-03-03T02:49:40;102715.28;;;7.56;46.87
78755;BME280;68073;54.176;-4.554;2023-03-03T02:52:06;102720.83;;;7.28;47.10
78755;BME280;68073;54.176;-4.554;2023-03-03T02:54:30;102721.35;;;7.20;47.33
78755;BME280;68073;54.176;-4.554;2023-03-03T02:56:55;102720.32;;;7.11;47.40
78755;BME280;68073;54.176;-4.554;2023-03-03T02:59:20;102717.76;;;7.48;46.72
78755;BME280;68073;54.176;-4.554;2023-03-03T03:01:46;102721.89;;;7.23;46.94
78755;BME280;68073;54.176;-4.554;2023-03-03T03:04:13;102717.45;;;7.40;46.61
78755;BME280;68073;54.176;-4.554;2023-03-03T03:06:36;102720.51;;;7.29;47.09
78755;BME280;68073;54.176;-4.554;2023-03-03T03:09:01;102720.21;;;7.36;46.83
78755;BME280;68073;54.176;-4.554;2023-03-03T03:11:26;102720.95;;;7.39;47.05
78755;BME280;68073;54.176;-4.554;2023-03-03T03:13:51;102719.33;;;7.55;46.55
78755;BME280;68073;54.176;-4.554;2023-03-03T03:16:17;102719.82;;;7.39;47.08
78755;BME280;68073;54.176;-4.554;2023-03-03T03:18:42;102721.69;;;7.39;47.03
78755;BME280;68073;54.176;-4.554;2023-03-03T03:21:09;102724.06;;;7.56;46.53
78755;BME280;68073;54.176;-4.554;2023-03-03T03:23:34;102723.46;;;7.56;47.20
78755;BME280;68073;54.176;-4.554;2023-03-03T03:25:58;102724.67;;;7.70;46.42
78755;BME280;68073;54.176;-4.554;2023-03-03T03:28:23;102726.65;;;7.65;46.70
78755;BME280;68073;54.176;-4.554;2023-03-03T03:30:50;102724.14;;;7.46;47.11
78755;BME280;68073;54.176;-4.554;2023-03-03T03:33:14;102724.19;;;7.78;46.46
78755;BME280;68073;54.176;-4.554;2023-03-03T03:35:39;102724.08;;;7.46;47.07
78755;BME280;68073;54.176;-4.554;2023-03-03T03:38:04;102730.81;;;7.11;47.69
78755;BME280;68073;54.176;-4.554;2023-03-03T03:40:29;102727.80;;;7.50;46.82
78755;BME280;68073;54.176;-4.554;2023-03-03T03:42:54;102729.92;;;7.34;47.17
78755;BME280;68073;54.176;-4.554;2023-03-03T03:45:19;102726.58;;;7.59;46.75
78755;BME280;68073;54.176;-4.554;2023-03-03T03:47:44;102731.55;;;7.57;47.63
78755;BME280;68073;54.176;-4.554;2023-03-03T03:50:10;102727.97;;;7.51;46.79
78755;BME280;68073;54.176;-4.554;2023-03-03T03:52:35;102728.64;;;7.45;46.80
78755;BME280;68073;54.176;-4.554;2023-03-03T03:55:00;102729.04;;;7.48;46.68
78755;BME280;68073;54.176;-4.554;2023-03-03T03:57:25;102728.38;;;7.59;46.41
78755;BME280;68073;54.176;-4.554;2023-03-03T03:59:50;102728.44;;;7.60;46.46
78755;BME280;68073;54.176;-4.554;2023-03-03T04:02:15;102732.00;;;7.30;46.98
78755;BME280;68073;54.176;-4.554;2023-03-03T04:04:40;102733.08;;;7.42;47.17
78755;BME280;68073;54.176;-4.554;2023-03-03T04:07:05;102730.39;;;7.51;46.59
78755;BME280;68073;54.176;-4.554;2023-03-03T04:09:31;102733.58;;;7.20;47.08
78755;BME280;68073;54.176;-4.554;2023-03-03T04:11:56;102736.05;;;7.33;46.92
78755;BME280;68073;54.176;-4.554;2023-03-03T04:14:21;102732.41;;;7.35;46.88
78755;BME280;68073;54.176;-4.554;2023-03-03T04:16:46;102730.51;;;7.18;47.23
78755;BME280;68073;54.176;-4.554;2023-03-03T04:19:11;102727.66;;;7.61;46.46
78755;BME280;68073;54.176;-4.554;2023-03-03T04:21:36;102730.96;;;7.39;46.91
78755;BME280;68073;54.176;-4.554;2023-03-03T04:24:01;102731.87;;;7.29;47.04
78755;BME280;68073;54.176;-4.554;2023-03-03T04:26:26;102730.67;;;7.36;46.74
78755;BME280;68073;54.176;-4.554;2023-03-03T04:28:51;102731.01;;;7.82;46.44
78755;BME280;68073;54.176;-4.554;2023-03-03T04:31:17;102731.02;;;7.24;46.82
78755;BME280;68073;54.176;-4.554;2023-03-03T04:33:42;102730.01;;;6.98;47.56
78755;BME280;68073;54.176;-4.554;2023-03-03T04:36:07;102729.33;;;7.31;46.94
78755;BME280;68073;54.176;-4.554;2023-03-03T04:38:33;102729.76;;;7.11;46.99
78755;BME280;68073;54.176;-4.554;2023-03-03T04:40:58;102731.50;;;7.03;47.13
78755;BME280;68073;54.176;-4.554;2023-03-03T04:43:23;102734.40;;;6.89;47.08
78755;BME280;68073;54.176;-4.554;2023-03-03T04:45:48;102734.93;;;6.92;47.44
78755;BME280;68073;54.176;-4.554;2023-03-03T04:48:13;102736.03;;;7.45;46.81
78755;BME280;68073;54.176;-4.554;2023-03-03T04:50:38;102735.88;;;7.55;46.91
78755;BME280;68073;54.176;-4.554;2023-03-03T04:53:03;102735.45;;;7.19;47.13
78755;BME280;68073;54.176;-4.554;2023-03-03T04:55:29;102738.12;;;7.23;46.73
78755;BME280;68073;54.176;-4.554;2023-03-03T04:57:54;102738.99;;;7.15;46.55
78755;BME280;68073;54.176;-4.554;2023-03-03T05:00:19;102737.99;;;7.02;46.79
78755;BME280;68073;54.176;-4.554;2023-03-03T05:02:46;102738.33;;;7.17;46.29
78755;BME280;68073;54.176;-4.554;2023-03-03T05:05:09;102741.11;;;7.24;46.14
78755;BME280;68073;54.176;-4.554;2023-03-03T05:07:34;102741.49;;;7.15;46.03
78755;BME280;68073;54.176;-4.554;2023-03-03T05:09:59;102740.24;;;7.13;46.08
78755;BME280;68073;54.176;-4.554;2023-03-03T05:12:24;102741.61;;;6.76;46.64
78755;BME280;68073;54.176;-4.554;2023-03-03T05:14:50;102742.00;;;6.84;46.64
78755;BME280;68073;54.176;-4.554;2023-03-03T05:17:15;102742.34;;;7.41;46.27
78755;BME280;68073;54.176;-4.554;2023-03-03T05:19:40;102743.87;;;6.85;46.53
78755;BME280;68073;54.176;-4.554;2023-03-03T05:22:05;102746.76;;;6.86;46.45
78755;BME280;68073;54.176;-4.554;2023-03-03T05:24:30;102747.03;;;6.74;46.60
78755;BME280;68073;54.176;-4.554;2023-03-03T05:26:56;102749.15;;;6.80;46.49
78755;BME280;68073;54.176;-4.554;2023-03-03T05:29:21;102754.92;;;7.02;46.96
78755;BME280;68073;54.176;-4.554;2023-03-03T05:31:46;102752.39;;;6.86;45.94
78755;BME280;68073;54.176;-4.554;2023-03-03T05:34:11;102751.52;;;6.76;46.34
78755;BME280;68073;54.176;-4.554;2023-03-03T05:36:37;102752.38;;;6.86;46.13
78755;BME280;68073;54.176;-4.554;2023-03-03T05:39:02;102753.39;;;6.84;45.99
78755;BME280;68073;54.176;-4.554;2023-03-03T05:41:27;102751.83;;;6.76;46.35
78755;BME280;68073;54.176;-4.554;2023-03-03T05:43:52;102750.77;;;6.92;46.36
78755;BME280;68073;54.176;-4.554;2023-03-03T05:46:17;102748.25;;;7.32;46.01
78755;BME280;68073;54.176;-4.554;2023-03-03T05:48:42;102750.79;;;6.66;46.51
78755;BME280;68073;54.176;-4.554;2023-03-03T05:51:08;102751.92;;;7.00;46.79
78755;BME280;68073;54.176;-4.554;2023-03-03T05:53:33;102749.19;;;6.97;46.47
78755;BME280;68073;54.176;-4.554;2023-03-03T05:55:59;102748.96;;;6.55;46.75
78755;BME280;68073;54.176;-4.554;2023-03-03T05:58:24;102745.94;;;6.61;46.51
78755;BME280;68073;54.176;-4.554;2023-03-03T06:00:49;102749.65;;;6.68;46.89
78755;BME280;68073;54.176;-4.554;2023-03-03T06:03:15;102749.80;;;6.56;46.63
78755;BME280;68073;54.176;-4.554;2023-03-03T06:05:40;102750.02;;;6.89;46.14
78755;BME280;68073;54.176;-4.554;2023-03-03T06:08:06;102753.27;;;6.97;46.21
78755;BME280;68073;54.176;-4.554;2023-03-03T06:10:31;102754.54;;;6.50;46.53
78755;BME280;68073;54.176;-4.554;2023-03-03T06:12:56;102754.43;;;6.59;46.52
78755;BME280;68073;54.176;-4.554;2023-03-03T06:15:23;102754.60;;;7.37;45.77
78755;BME280;68073;54.176;-4.554;2023-03-03T06:17:47;102756.91;;;6.79;45.93
78755;BME280;68073;54.176;-4.554;2023-03-03T06:20:12;102760.17;;;6.59;46.13
78755;BME280;68073;54.176;-4.554;2023-03-03T06:22:37;102762.69;;;6.91;46.02
78755;BME280;68073;54.176;-4.554;2023-03-03T06:25:04;102761.71;;;6.58;46.04
78755;BME280;68073;54.176;-4.554;2023-03-03T06:27:28;102757.67;;;7.49;44.99
78755;BME280;68073;54.176;-4.554;2023-03-03T06:29:53;102759.32;;;7.20;44.81
78755;BME280;68073;54.176;-4.554;2023-03-03T06:32:18;102761.47;;;6.98;44.48
78755;BME280;68073;54.176;-4.554;2023-03-03T06:34:43;102764.97;;;7.15;44.74
78755;BME280;68073;54.176;-4.554;2023-03-03T06:37:09;102770.44;;;6.85;44.87
78755;BME280;68073;54.176;-4.554;2023-03-03T06:39:34;102776.02;;;6.63;45.19
78755;BME280;68073;54.176;-4.554;2023-03-03T06:41:59;102778.44;;;6.45;45.60
78755;BME280;68073;54.176;-4.554;2023-03-03T06:44:24;102781.67;;;7.07;45.47
78755;BME280;68073;54.176;-4.554;2023-03-03T06:46:49;102780.80;;;6.98;45.53
78755;BME280;68073;54.176;-4.554;2023-03-03T06:49:14;102785.04;;;6.78;45.66
78755;BME280;68073;54.176;-4.554;2023-03-03T06:51:40;102788.02;;;6.93;45.89
78755;BME280;68073;54.176;-4.554;2023-03-03T06:54:10;102787.97;;;6.96;45.76
78755;BME280;68073;54.176;-4.554;2023-03-03T06:56:34;102790.21;;;6.65;45.53
78755;BME280;68073;54.176;-4.554;2023-03-03T06:58:58;102789.94;;;6.41;45.92
78755;BME280;68073;54.176;-4.554;2023-03-03T07:01:21;102791.08;;;6.60;45.85
78755;BME280;68073;54.176;-4.554;2023-03-03T07:03:47;102790.50;;;6.70;45.70
78755;BME280;68073;54.176;-4.554;2023-03-03T07:06:20;102791.76;;;6.82;45.44
78755;BME280;68073;54.176;-4.554;2023-03-03T07:08:39;102791.14;;;7.00;45.07
78755;BME280;68073;54.176;-4.554;2023-03-03T07:11:30;102789.68;;;7.14;45.16
78755;BME280;68073;54.176;-4.554;2023-03-03T07:13:28;102789.01;;;6.62;45.46
78755;BME280;68073;54.176;-4.554;2023-03-03T07:15:55;102789.95;;;6.66;46.04
78755;BME280;68073;54.176;-4.554;2023-03-03T07:18:31;102787.70;;;6.72;45.82
78755;BME280;68073;54.176;-4.554;2023-03-03T07:20:44;102791.50;;;6.81;45.82
78755;BME280;68073;54.176;-4.554;2023-03-03T07:23:19;102792.64;;;6.75;45.95
78755;BME280;68073;54.176;-4.554;2023-03-03T07:25:34;102794.80;;;6.63;46.12
78755;BME280;68073;54.176;-4.554;2023-03-03T07:28:10;102798.52;;;6.45;46.19
78755;BME280;68073;54.176;-4.554;2023-03-03T07:30:26;102801.84;;;6.33;46.61
78755;BME280;68073;54.176;-4.554;2023-03-03T07:32:52;102800.34;;;6.57;46.56
78755;BME280;68073;54.176;-4.554;2023-03-03T07:35:28;102803.00;;;6.68;46.73
78755;BME280;68073;54.176;-4.554;2023-03-03T07:37:41;102805.92;;;6.53;46.45
78755;BME280;68073;54.176;-4.554;2023-03-03T07:42:37;102809.85;;;6.57;46.69
78755;BME280;68073;54.176;-4.554;2023-03-03T07:44:58;102815.19;;;6.74;46.83
78755;BME280;68073;54.176;-4.554;2023-03-03T07:47:25;102814.87;;;6.53;46.86
78755;BME280;68073;54.176;-4.554;2023-03-03T07:49:48;102814.01;;;6.49;46.71
78755;BME280;68073;54.176;-4.554;2023-03-03T07:52:23;102815.58;;;6.37;47.35
78755;BME280;68073;54.176;-4.554;2023-03-03T07:54:39;102816.11;;;6.60;46.67
78755;BME280;68073;54.176;-4.554;2023-03-03T07:57:14;102820.73;;;6.73;46.61
78755;BME280;68073;54.176;-4.554;2023-03-03T07:59:29;102819.13;;;6.98;46.53
78755;BME280;68073;54.176;-4.554;2023-03-03T08:01:55;102817.77;;;6.56;46.76
78755;BME280;68073;54.176;-4.554;2023-03-03T08:04:23;102817.25;;;7.16;46.67
78755;BME280;68073;54.176;-4.554;2023-03-03T08:06:48;102819.40;;;6.84;46.38
78755;BME280;68073;54.176;-4.554;2023-03-03T08:09:24;102825.13;;;6.67;46.84
78755;BME280;68073;54.176;-4.554;2023-03-03T08:11:35;102825.27;;;6.72;46.41
78755;BME280;68073;54.176;-4.554;2023-03-03T08:14:00;102828.81;;;7.08;46.54
78755;BME280;68073;54.176;-4.554;2023-03-03T08:16:35;102825.47;;;6.59;46.65
78755;BME280;68073;54.176;-4.554;2023-03-03T08:18:52;102826.39;;;7.09;46.67
78755;BME280;68073;54.176;-4.554;2023-03-03T08:21:18;102824.87;;;6.68;46.55
78755;BME280;68073;54.176;-4.554;2023-03-03T08:23:43;102825.66;;;6.68;46.57
78755;BME280;68073;54.176;-4.554;2023-03-03T08:26:08;102827.13;;;6.85;46.92
78755;BME280;68073;54.176;-4.554;2023-03-03T08:28:34;102830.22;;;6.57;46.30
78755;BME280;68073;54.176;-4.554;2023-03-03T08:30:59;102829.17;;;6.44;46.77
78755;BME280;68073;54.176;-4.554;2023-03-03T08:33:24;102832.77;;;6.92;46.65
78755;BME280;68073;54.176;-4.554;2023-03-03T08:35:49;102832.41;;;6.92;46.11
78755;BME280;68073;54.176;-4.554;2023-03-03T08:38:17;102835.44;;;6.93;46.29
78755;BME280;68073;54.176;-4.554;2023-03-03T08:40:40;102835.90;;;6.91;46.18
78755;BME280;68073;54.176;-4.554;2023-03-03T08:43:05;102837.37;;;6.85;45.67
78755;BME280;68073;54.176;-4.554;2023-03-03T08:45:31;102839.63;;;7.28;46.11
78755;BME280;68073;54.176;-4.554;2023-03-03T08:47:56;102839.76;;;6.90;45.82
78755;BME280;68073;54.176;-4.554;2023-03-03T08:50:22;102841.69;;;7.38;45.53
78755;BME280;68073;54.176;-4.554;2023-03-03T08:52:48;102841.35;;;7.07;45.52
78755;BME280;68073;54.176;-4.554;2023-03-03T08:55:13;102842.48;;;6.98;45.58
78755;BME280;68073;54.176;-4.554;2023-03-03T08:57:38;102841.71;;;6.90;45.65
78755;BME280;68073;54.176;-4.554;2023-03-03T09:00:05;102843.38;;;6.99;45.17
78755;BME280;68073;54.176;-4.554;2023-03-03T09:02:29;102845.33;;;7.18;44.74
78755;BME280;68073;54.176;-4.554;2023-03-03T09:04:55;102848.10;;;7.42;44.17
78755;BME280;68073;54.176;-4.554;2023-03-03T09:07:20;102847.17;;;7.25;44.44
78755;BME280;68073;54.176;-4.554;2023-03-03T09:09:45;102851.49;;;7.11;44.60
78755;BME280;68073;54.176;-4.554;2023-03-03T09:12:16;102854.49;;;7.30;44.10
78755;BME280;68073;54.176;-4.554;2023-03-03T09:14:36;102856.84;;;7.29;44.05
78755;BME280;68073;54.176;-4.554;2023-03-03T09:17:14;102852.65;;;7.37;44.06
78755;BME280;68073;54.176;-4.554;2023-03-03T09:19:29;102855.81;;;7.26;43.78
78755;BME280;68073;54.176;-4.554;2023-03-03T09:21:54;102852.25;;;7.60;43.53
78755;BME280;68073;54.176;-4.554;2023-03-03T09:24:24;102856.25;;;7.24;43.82
78755;BME280;68073;54.176;-4.554;2023-03-03T09:26:45;102859.67;;;7.46;43.58
78755;BME280;68073;54.176;-4.554;2023-03-03T09:29:21;102865.74;;;7.32;44.59
78755;BME280;68073;54.176;-4.554;2023-03-03T09:31:38;102870.57;;;7.27;44.73
78755;BME280;68073;54.176;-4.554;2023-03-03T09:33:59;102870.24;;;7.40;44.81
78755;BME280;68073;54.176;-4.554;2023-03-03T09:36:26;102874.30;;;7.17;45.20
78755;BME280;68073;54.176;-4.554;2023-03-03T09:38:50;102874.45;;;7.44;45.29
78755;BME280;68073;54.176;-4.554;2023-03-03T09:41:35;102875.22;;;7.15;45.53
78755;BME280;68073;54.176;-4.554;2023-03-03T09:43:47;102879.30;;;7.12;45.68
78755;BME280;68073;54.176;-4.554;2023-03-03T09:46:09;102879.86;;;6.95;45.87
78755;BME280;68073;54.176;-4.554;2023-03-03T09:48:41;102875.12;;;7.33;45.20
78755;BME280;68073;54.176;-4.554;2023-03-03T09:51:05;102877.13;;;7.28;45.42
78755;BME280;68073;54.176;-4.554;2023-03-03T09:53:32;102878.48;;;6.97;45.33
78755;BME280;68073;54.176;-4.554;2023-03-03T09:55:55;102882.83;;;7.31;45.14
78755;BME280;68073;54.176;-4.554;2023-03-03T09:58:26;102884.44;;;7.41;44.71
78755;BME280;68073;54.176;-4.554;2023-03-03T10:00:48;102885.67;;;7.36;45.11
78755;BME280;68073;54.176;-4.554;2023-03-03T10:03:25;102887.90;;;7.31;44.92
78755;BME280;68073;54.176;-4.554;2023-03-03T10:05:39;102889.51;;;7.43;45.05
78755;BME280;68073;54.176;-4.554;2023-03-03T10:08:08;102891.40;;;7.43;45.28
78755;BME280;68073;54.176;-4.554;2023-03-03T10:10:35;102889.37;;;7.33;44.80
78755;BME280;68073;54.176;-4.554;2023-03-03T10:12:53;102888.42;;;7.47;44.68
78755;BME280;68073;54.176;-4.554;2023-03-03T10:15:20;102893.17;;;7.68;44.64
78755;BME280;68073;54.176;-4.554;2023-03-03T10:17:46;102896.69;;;7.64;43.41
78755;BME280;68073;54.176;-4.554;2023-03-03T10:20:16;102902.55;;;7.34;43.31
78755;BME280;68073;54.176;-4.554;2023-03-03T10:22:32;102903.94;;;7.65;43.59
78755;BME280;68073;54.176;-4.554;2023-03-03T10:25:03;102907.44;;;7.64;43.48
78755;BME280;68073;54.176;-4.554;2023-03-03T10:27:30;102910.67;;;7.61;42.66
78755;BME280;68073;54.176;-4.554;2023-03-03T10:29:50;102911.74;;;7.63;42.13
78755;BME280;68073;54.176;-4.554;2023-03-03T10:34:53;102915.56;;;7.54;41.51
78755;BME280;68073;54.176;-4.554;2023-03-03T10:37:01;102917.64;;;7.79;40.71
78755;BME280;68073;54.176;-4.554;2023-03-03T10:39:36;102919.14;;;7.81;41.28
78755;BME280;68073;54.176;-4.554;2023-03-03T10:42:02;102915.67;;;8.05;40.29
78755;BME280;68073;54.176;-4.554;2023-03-03T10:44:27;102919.33;;;7.99;40.85
78755;BME280;68073;54.176;-4.554;2023-03-03T10:46:51;102919.40;;;8.36;39.98
78755;BME280;68073;54.176;-4.554;2023-03-03T10:51:37;102917.32;;;8.67;40.23
78755;BME280;68073;54.176;-4.554;2023-03-03T10:54:05;102919.71;;;8.44;39.72
78755;BME280;68073;54.176;-4.554;2023-03-03T10:56:29;102917.23;;;8.48;38.83
78755;BME280;68073;54.176;-4.554;2023-03-03T10:58:58;102920.41;;;8.72;39.29
78755;BME280;68073;54.176;-4.554;2023-03-03T11:01:17;102919.11;;;8.27;38.96
78755;BME280;68073;54.176;-4.554;2023-03-03T11:03:47;102919.99;;;8.58;40.30
78755;BME280;68073;54.176;-4.554;2023-03-03T11:06:04;102916.15;;;8.93;38.25
78755;BME280;68073;54.176;-4.554;2023-03-03T11:08:29;102917.57;;;9.23;38.71
78755;BME280;68073;54.176;-4.554;2023-03-03T11:10:59;102924.99;;;9.35;38.39
78755;BME280;68073;54.176;-4.554;2023-03-03T11:13:22;102928.41;;;8.41;38.98
78755;BME280;68073;54.176;-4.554;2023-03-03T11:15:52;102928.66;;;8.82;38.82
78755;BME280;68073;54.176;-4.554;2023-03-03T11:20:37;102926.43;;;8.98;37.97
78755;BME280;68073;54.176;-4.554;2023-03-03T11:23:03;102928.58;;;9.11;38.21
78755;BME280;68073;54.176;-4.554;2023-03-03T11:25:27;102926.37;;;8.73;37.28
78755;BME280;68073;54.176;-4.554;2023-03-03T11:28:07;102926.75;;;9.12;37.73
78755;BME280;68073;54.176;-4.554;2023-03-03T11:30:26;102929.70;;;8.56;39.75
78755;BME280;68073;54.176;-4.554;2023-03-03T11:32:47;102934.50;;;9.30;43.00
78755;BME280;68073;54.176;-4.554;2023-03-03T11:35:18;102933.76;;;9.22;43.41
78755;BME280;68073;54.176;-4.554;2023-03-03T11:37:37;102937.13;;;8.92;43.79
78755;BME280;68073;54.176;-4.554;2023-03-03T11:40:02;102937.34;;;8.98;43.35
78755;BME280;68073;54.176;-4.554;2023-03-03T11:42:25;102938.80;;;8.99;42.50
78755;BME280;68073;54.176;-4.554;2023-03-03T11:44:48;102940.30;;;9.20;43.49
78755;BME280;68073;54.176;-4.554;2023-03-03T11:47:17;102937.97;;;9.26;41.74
78755;BME280;68073;54.176;-4.554;2023-03-03T11:49:40;102938.92;;;9.37;41.83
78755;BME280;68073;54.176;-4.554;2023-03-03T11:52:12;102936.31;;;9.34;42.41
78755;BME280;68073;54.176;-4.554;2023-03-03T11:54:29;102936.83;;;9.61;39.67
78755;BME280;68073;54.176;-4.554;2023-03-03T11:56:55;102937.29;;;9.29;40.24
78755;BME280;68073;54.176;-4.554;2023-03-03T11:59:31;102941.20;;;9.48;40.30
78755;BME280;68073;54.176;-4.554;2023-03-03T12:01:45;102934.91;;;9.43;38.82
78755;BME280;68073;54.176;-4.554;2023-03-03T12:04:09;102935.11;;;9.46;39.73
78755;BME280;68073;54.176;-4.554;2023-03-03T12:06:52;102933.00;;;9.35;39.87
78755;BME280;68073;54.176;-4.554;2023-03-03T12:09:07;102934.71;;;8.61;40.26
78755;BME280;68073;54.176;-4.554;2023-03-03T12:11:25;102931.46;;;9.07;38.08
78755;BME280;68073;54.176;-4.554;2023-03-03T12:13:54;102929.42;;;8.91;39.23
78755;BME280;68073;54.176;-4.554;2023-03-03T12:16:21;102927.17;;;9.15;40.08
78755;BME280;68073;54.176;-4.554;2023-03-03T12:18:52;102927.02;;;9.15;39.95
78755;BME280;68073;54.176;-4.554;2023-03-03T12:21:18;102925.03;;;9.20;40.15
78755;BME280;68073;54.176;-4.554;2023-03-03T12:23:44;102925.15;;;9.44;40.50
78755;BME280;68073;54.176;-4.554;2023-03-03T12:25:59;102922.64;;;8.96;40.68
78755;BME280;68073;54.176;-4.554;2023-03-03T12:28:22;102920.65;;;9.04;41.23
78755;BME280;68073;54.176;-4.554;2023-03-03T12:30:59;102917.13;;;9.18;39.37
78755;BME280;68073;54.176;-4.554;2023-03-03T12:33:19;102917.19;;;8.66;40.66
78755;BME280;68073;54.176;-4.554;2023-03-03T12:35:40;102915.73;;;8.48;39.98
78755;BME280;68073;54.176;-4.554;2023-03-03T12:38:07;102915.50;;;8.70;38.72
78755;BME280;68073;54.176;-4.554;2023-03-03T12:40:27;102916.77;;;9.07;39.84
78755;BME280;68073;54.176;-4.554;2023-03-03T12:43:04;102916.35;;;9.08;38.38
78755;BME280;68073;54.176;-4.554;2023-03-03T12:45:25;102913.19;;;8.81;39.86
78755;BME280;68073;54.176;-4.554;2023-03-03T12:47:45;102910.93;;;9.04;38.63
78755;BME280;68073;54.176;-4.554;2023-03-03T12:50:24;102910.57;;;8.87;39.17